Calilegua, Argentina
Current Conditions -  °F | °C
As of 9:00 PM on Friday 24 Oct 2014 (Local Time) from SASJ Reporting Station
Scattered Clouds Scattered Clouds  
Wind Chill: 25°   Ceiling: Unl
Heat Index: 26°   Visibility: 6mi
Dew Point: 17°   Wind: 3mph
Humidity: 61%   Direction: 320°NW
Pressure: 29.97"   Gusts: NA
Location:  23.78°S, 64.78°W
Report Text: SASJ 250000Z 32003KT 9999 SCT025 SCT10025/17 Q1015
Loading
Personal Weather Stations






























Interactive Weather Map
Tropical Storm Tracking
New forecast layout! Learn more

10-Day Weather Forecast

Advertisements
Track Severe Weather on mobile